Time,TemperatureF,DewpointF,PressureIn,WindDirection,WindDirectionDegrees,WindSpeedMPH,WindSpeedGustMPH,Humidity,HourlyPrecipIn,Conditions,Clouds,dailyrainin,SoftwareType,DateUTC
2013-05-17 00:01:00,73.0,68.5,29.95,SSW,205,0.0,1.0,86,0.00,,,0.00,meteohub,2013-05-17 04:01:00,
2013-05-17 00:02:00,73.0,68.9,29.95,SSW,205,0.0,1.0,87,0.00,,,0.00,meteohub,2013-05-17 04:02:00,
2013-05-17 00:04:00,73.0,68.9,29.94,SSW,205,0.0,1.0,87,0.00,,,0.00,meteohub,2013-05-17 04:04:00,
2013-05-17 00:06:00,73.0,68.9,29.94,SSW,205,0.0,3.0,87,0.00,,,0.00,meteohub,2013-05-17 04:06:00,
2013-05-17 00:11:00,72.9,68.7,29.95,SSW,205,0.0,3.0,87,0.00,,,0.00,meteohub,2013-05-17 04:11:00,
2013-05-17 00:16:00,72.9,69.1,29.94,SSW,205,0.0,0.0,88,0.00,,,0.00,meteohub,2013-05-17 04:16:00,
2013-05-17 00:21:00,72.9,69.1,29.95,SSW,205,0.0,0.0,88,0.00,,,0.00,meteohub,2013-05-17 04:21:00,
2013-05-17 00:26:00,72.9,69.1,29.95,SSW,205,0.0,0.0,88,0.00,,,0.00,meteohub,2013-05-17 04:26:00,
2013-05-17 00:31:00,72.9,69.4,29.95,SSW,205,0.0,0.0,89,0.00,,,0.00,meteohub,2013-05-17 04:31:00,
2013-05-17 00:36:00,72.9,69.4,29.95,SSW,205,0.0,0.0,89,0.00,,,0.00,meteohub,2013-05-17 04:36:00,
2013-05-17 00:41:00,72.9,69.4,29.94,SSW,205,0.0,0.0,89,0.00,,,0.00,meteohub,2013-05-17 04:41:00,
2013-05-17 00:46:00,72.9,69.4,29.94,SSW,205,0.0,0.0,89,0.00,,,0.00,meteohub,2013-05-17 04:46:00,
2013-05-17 00:51:00,72.7,69.3,29.94,SSW,205,0.0,0.0,89,0.00,,,0.00,meteohub,2013-05-17 04:51:00,
2013-05-17 00:56:00,72.7,69.6,29.94,SSW,205,0.0,0.0,90,0.00,,,0.00,meteohub,2013-05-17 04:56:00,
2013-05-17 01:01:00,72.7,69.6,29.94,SSW,205,0.0,0.0,90,0.00,,,0.00,meteohub,2013-05-17 05:01:00,
2013-05-17 01:06:00,72.7,69.6,29.94,SSW,205,0.0,0.0,90,0.00,,,0.00,meteohub,2013-05-17 05:06:00,
2013-05-17 01:11:00,72.7,69.6,29.94,SSW,205,0.0,0.0,90,0.00,,,0.00,meteohub,2013-05-17 05:11:00,
2013-05-17 01:16:00,72.7,69.6,29.95,SSW,205,0.0,0.0,90,0.00,,,0.00,meteohub,2013-05-17 05:16:00,
2013-05-17 01:21:00,72.7,69.6,29.94,SSW,205,0.0,0.0,90,0.00,,,0.00,meteohub,2013-05-17 05:21:00,
2013-05-17 01:27:00,72.7,70.0,29.94,SSW,206,2.0,0.0,91,0.00,,,0.00,meteohub,2013-05-17 05:27:00,
2013-05-17 01:32:00,72.7,69.6,29.94,SSW,205,4.0,4.0,90,0.00,,,0.00,meteohub,2013-05-17 05:32:00,
2013-05-17 01:37:00,72.7,70.0,29.94,SSW,204,0.0,4.0,91,0.00,,,0.00,meteohub,2013-05-17 05:37:00,
2013-05-17 01:42:00,72.5,69.8,29.94,SSW,204,0.0,4.0,91,0.00,,,0.00,meteohub,2013-05-17 05:42:00,
2013-05-17 01:47:00,72.5,69.8,29.94,SSW,204,0.0,4.0,91,0.00,,,0.00,meteohub,2013-05-17 05:47:00,
2013-05-17 01:52:00,72.5,69.8,29.94,SSW,204,0.0,3.0,91,0.00,,,0.00,meteohub,2013-05-17 05:52:00,
2013-05-17 01:57:00,72.5,69.8,29.94,SSW,204,0.0,3.0,91,0.00,,,0.00,meteohub,2013-05-17 05:57:00,
2013-05-17 02:02:00,72.5,69.8,29.94,SSW,204,0.0,3.0,91,0.00,,,0.00,meteohub,2013-05-17 06:02:00,
2013-05-17 02:07:00,72.5,69.8,29.94,SSW,204,0.0,1.0,91,0.00,,,0.00,meteohub,2013-05-17 06:07:00,
2013-05-17 02:12:00,72.7,70.0,29.94,SSW,204,0.0,0.0,91,0.00,,,0.00,meteohub,2013-05-17 06:12:00,
2013-05-17 02:17:00,72.5,69.8,29.94,SSW,204,0.0,0.0,91,0.00,,,0.00,meteohub,2013-05-17 06:17:00,
2013-05-17 02:22:00,72.7,70.2,29.94,SSW,204,0.0,1.0,92,0.00,,,0.00,meteohub,2013-05-17 06:22:00,
2013-05-17 02:27:00,72.7,70.2,29.94,SSW,204,0.0,1.0,92,0.00,,,0.00,meteohub,2013-05-17 06:27:00,
2013-05-17 02:32:00,72.7,70.2,29.94,SSW,204,0.0,1.0,92,0.00,,,0.00,meteohub,2013-05-17 06:32:00,
2013-05-17 02:37:00,72.7,70.2,29.94,SSW,204,0.0,1.0,92,0.00,,,0.00,meteohub,2013-05-17 06:37:00,
2013-05-17 02:42:00,72.7,70.2,29.93,SSW,204,0.0,1.0,92,0.00,,,0.00,meteohub,2013-05-17 06:42:00,
2013-05-17 02:47:00,72.7,70.2,29.94,SSW,201,0.0,3.0,92,0.00,,,0.00,meteohub,2013-05-17 06:47:00,
2013-05-17 02:52:00,72.7,70.2,29.94,SSW,201,0.0,3.0,92,0.00,,,0.00,meteohub,2013-05-17 06:52:00,
2013-05-17 02:57:00,72.5,70.0,29.93,SSW,201,0.0,3.0,92,0.00,,,0.00,meteohub,2013-05-17 06:57:00,
2013-05-17 03:02:00,72.3,69.8,29.94,SSW,201,0.0,2.0,92,0.00,,,0.00,meteohub,2013-05-17 07:02:00,
2013-05-17 03:07:00,72.3,69.8,29.93,SSW,201,0.0,1.0,92,0.00,,,0.00,meteohub,2013-05-17 07:07:00,
2013-05-17 03:12:00,72.3,69.8,29.93,SSW,201,0.0,1.0,92,0.00,,,0.00,meteohub,2013-05-17 07:12:00,
2013-05-17 03:17:00,72.3,69.8,29.93,SSW,200,0.0,4.0,92,0.00,,,0.00,meteohub,2013-05-17 07:17:00,
2013-05-17 03:22:00,72.3,69.8,29.93,SSW,200,0.0,4.0,92,0.00,,,0.00,meteohub,2013-05-17 07:22:00,
2013-05-17 03:27:00,72.5,70.3,29.93,SSW,200,0.0,4.0,93,0.00,,,0.00,meteohub,2013-05-17 07:27:00,
2013-05-17 03:32:00,72.5,70.3,29.93,SSW,200,0.0,3.0,93,0.00,,,0.00,meteohub,2013-05-17 07:32:00,
2013-05-17 03:37:00,72.5,70.3,29.94,SSW,200,0.0,3.0,93,0.00,,,0.00,meteohub,2013-05-17 07:37:00,
2013-05-17 03:42:00,72.3,70.2,29.94,SSW,200,0.0,3.0,93,0.00,,,0.00,meteohub,2013-05-17 07:42:00,
2013-05-17 03:47:00,72.3,70.2,29.93,SSW,200,0.0,1.0,93,0.00,,,0.00,meteohub,2013-05-17 07:47:00,
2013-05-17 03:52:00,72.3,70.2,29.94,SSW,200,0.0,1.0,93,0.00,,,0.00,meteohub,2013-05-17 07:52:00,
2013-05-17 03:57:00,72.3,70.2,29.94,SSW,200,0.0,2.0,93,0.00,,,0.00,meteohub,2013-05-17 07:57:00,
2013-05-17 04:02:00,72.1,70.0,29.94,SSW,200,0.0,2.0,93,0.00,,,0.00,meteohub,2013-05-17 08:02:00,
2013-05-17 04:07:00,72.1,70.0,29.94,SSW,200,0.0,2.0,93,0.00,,,0.00,meteohub,2013-05-17 08:07:00,
2013-05-17 04:12:00,72.1,70.0,29.94,SSW,200,0.0,0.0,93,0.00,,,0.00,meteohub,2013-05-17 08:12:00,
2013-05-17 04:17:00,72.0,69.8,29.94,SSW,200,0.0,0.0,93,0.00,,,0.00,meteohub,2013-05-17 08:17:00,
2013-05-17 04:22:00,72.0,69.8,29.94,SSW,200,0.0,0.0,93,0.00,,,0.00,meteohub,2013-05-17 08:22:00,
2013-05-17 04:27:00,72.0,69.8,29.94,SSW,200,0.0,0.0,93,0.00,,,0.00,meteohub,2013-05-17 08:27:00,
2013-05-17 04:32:00,72.0,69.8,29.94,SSW,200,0.0,0.0,93,0.00,,,0.00,meteohub,2013-05-17 08:32:00,
2013-05-17 04:37:00,72.0,69.8,29.94,SSW,200,0.0,0.0,93,0.00,,,0.00,meteohub,2013-05-17 08:37:00,
2013-05-17 04:42:00,71.8,69.6,29.94,SSW,200,0.0,0.0,93,0.00,,,0.00,meteohub,2013-05-17 08:42:00,
2013-05-17 04:47:00,71.8,69.6,29.94,SSW,200,0.0,0.0,93,0.00,,,0.00,meteohub,2013-05-17 08:47:00,
2013-05-17 04:52:00,71.8,69.6,29.94,SSW,200,0.0,0.0,93,0.00,,,0.00,meteohub,2013-05-17 08:52:00,
2013-05-17 04:57:00,71.8,70.0,29.94,SSW,200,0.0,0.0,94,0.00,,,0.00,meteohub,2013-05-17 08:57:00,
2013-05-17 05:02:00,71.8,70.0,29.94,SSW,200,0.0,0.0,94,0.00,,,0.00,meteohub,2013-05-17 09:02:00,
2013-05-17 05:07:00,71.6,69.8,29.94,SSW,200,0.0,0.0,94,0.00,,,0.00,meteohub,2013-05-17 09:07:00,
2013-05-17 05:12:00,71.4,69.6,29.94,SSW,200,0.0,0.0,94,0.00,,,0.00,meteohub,2013-05-17 09:12:00,
2013-05-17 05:17:00,71.4,69.6,29.94,SSW,200,0.0,0.0,94,0.00,,,0.00,meteohub,2013-05-17 09:17:00,
2013-05-17 05:22:00,71.4,69.6,29.94,SSW,200,0.0,0.0,94,0.00,,,0.00,meteohub,2013-05-17 09:22:00,
2013-05-17 05:27:00,71.4,69.6,29.94,SSW,200,0.0,0.0,94,0.00,,,0.00,meteohub,2013-05-17 09:27:00,
2013-05-17 05:32:00,71.4,69.6,29.94,SSW,200,0.0,0.0,94,0.00,,,0.00,meteohub,2013-05-17 09:32:00,
2013-05-17 05:37:00,71.4,69.6,29.94,SSW,200,2.0,0.0,94,0.00,,,0.00,meteohub,2013-05-17 09:37:00,
2013-05-17 05:42:00,71.2,69.4,29.94,SSW,200,0.0,3.0,94,0.00,,,0.00,meteohub,2013-05-17 09:42:00,
2013-05-17 05:47:00,71.2,69.4,29.94,SSW,200,0.0,3.0,94,0.00,,,0.00,meteohub,2013-05-17 09:47:00,
2013-05-17 05:52:00,71.2,69.4,29.94,SSW,200,0.0,3.0,94,0.00,,,0.00,meteohub,2013-05-17 09:52:00,
2013-05-17 05:57:00,71.2,69.4,29.94,SSW,200,0.0,0.0,94,0.00,,,0.00,meteohub,2013-05-17 09:57:00,
2013-05-17 06:02:00,71.2,69.4,29.94,SSW,200,0.0,0.0,94,0.00,,,0.00,meteohub,2013-05-17 10:02:00,
2013-05-17 06:07:00,71.2,69.4,29.94,SSW,200,0.0,1.0,94,0.00,,,0.00,meteohub,2013-05-17 10:07:00,
2013-05-17 06:12:00,71.2,69.4,29.94,SSW,200,0.0,1.0,94,0.00,,,0.00,meteohub,2013-05-17 10:12:00,
2013-05-17 06:17:00,71.2,69.4,29.94,SSW,200,0.0,1.0,94,0.00,,,0.00,meteohub,2013-05-17 10:17:00,
2013-05-17 06:22:00,71.2,69.4,29.94,SSW,200,0.0,0.0,94,0.00,,,0.00,meteohub,2013-05-17 10:22:00,
2013-05-17 06:27:00,71.1,69.6,29.94,SSW,200,0.0,0.0,95,0.00,,,0.00,meteohub,2013-05-17 10:27:00,
2013-05-17 06:32:00,71.2,69.8,29.94,SSW,200,0.0,3.0,95,0.00,,,0.00,meteohub,2013-05-17 10:32:00,
2013-05-17 06:37:00,71.1,69.6,29.94,SSW,200,0.0,3.0,95,0.00,,,0.00,meteohub,2013-05-17 10:37:00,
2013-05-17 06:42:00,71.1,69.6,29.94,SSW,200,0.0,3.0,95,0.00,,,0.00,meteohub,2013-05-17 10:42:00,
2013-05-17 06:47:00,71.1,69.6,29.94,SSW,200,0.0,3.0,95,0.00,,,0.00,meteohub,2013-05-17 10:47:00,
2013-05-17 06:52:00,71.1,69.6,29.94,SSW,200,0.0,3.0,95,0.00,,,0.00,meteohub,2013-05-17 10:52:00,
2013-05-17 06:57:00,71.1,69.6,29.94,SSW,200,0.0,3.0,95,0.00,,,0.00,meteohub,2013-05-17 10:57:00,
2013-05-17 07:02:00,71.1,69.6,29.95,SSW,200,0.0,1.0,95,0.00,,,0.00,meteohub,2013-05-17 11:02:00,
2013-05-17 07:07:00,71.1,69.6,29.95,SSW,200,0.0,1.0,95,0.00,,,0.00,meteohub,2013-05-17 11:07:00,
2013-05-17 07:12:00,71.1,69.6,29.96,SSW,200,0.0,0.0,95,0.00,,,0.00,meteohub,2013-05-17 11:12:00,
2013-05-17 07:17:00,71.2,69.8,29.96,SSW,200,0.0,0.0,95,0.00,,,0.00,meteohub,2013-05-17 11:17:00,
2013-05-17 07:22:00,71.2,69.8,29.96,SSW,200,0.0,2.0,95,0.00,,,0.00,meteohub,2013-05-17 11:22:00,
2013-05-17 07:27:00,71.2,69.8,29.96,SSW,200,0.0,2.0,95,0.00,,,0.00,meteohub,2013-05-17 11:27:00,
2013-05-17 07:32:00,71.2,69.8,29.96,SSW,200,0.0,1.0,95,0.00,,,0.00,meteohub,2013-05-17 11:32:00,
2013-05-17 07:37:00,71.4,70.0,29.96,SSW,200,0.0,1.0,95,0.00,,,0.00,meteohub,2013-05-17 11:37:00,
2013-05-17 07:42:00,71.4,70.0,29.96,SSW,200,0.0,0.0,95,0.00,,,0.00,meteohub,2013-05-17 11:42:00,
2013-05-17 07:47:00,71.4,70.0,29.96,SSW,200,0.0,1.0,95,0.00,,,0.00,meteohub,2013-05-17 11:47:00,
2013-05-17 07:52:00,71.4,70.0,29.96,SSW,200,0.0,1.0,95,0.00,,,0.00,meteohub,2013-05-17 11:52:00,
2013-05-17 07:57:00,71.8,70.3,29.96,SSW,200,0.0,1.0,95,0.00,,,0.00,meteohub,2013-05-17 11:57:00,
2013-05-17 08:02:00,72.0,70.5,29.96,SSW,200,0.0,1.0,95,0.00,,,0.00,meteohub,2013-05-17 12:02:00,
2013-05-17 08:07:00,72.0,70.5,29.97,SSW,200,0.0,1.0,95,0.00,,,0.00,meteohub,2013-05-17 12:07:00,
2013-05-17 08:12:00,72.1,70.7,29.97,SSW,200,0.0,0.0,95,0.00,,,0.00,meteohub,2013-05-17 12:12:00,
2013-05-17 08:17:00,72.3,70.9,29.97,SSW,200,0.0,1.0,95,0.00,,,0.00,meteohub,2013-05-17 12:17:00,
2013-05-17 08:22:00,72.7,71.2,29.96,SSW,200,0.0,2.0,95,0.00,,,0.00,meteohub,2013-05-17 12:22:00,
2013-05-17 08:27:00,72.9,71.1,29.96,South,186,0.0,3.0,94,0.00,,,0.00,meteohub,2013-05-17 12:27:00,
2013-05-17 08:32:00,72.9,71.1,29.96,South,186,0.0,5.0,94,0.00,,,0.00,meteohub,2013-05-17 12:32:00,
2013-05-17 08:37:00,73.0,71.2,29.97,South,185,0.0,5.0,94,0.00,,,0.00,meteohub,2013-05-17 12:37:00,
2013-05-17 08:42:00,73.4,71.6,29.97,SW,219,0.0,5.0,94,0.00,,,0.00,meteohub,2013-05-17 12:42:00,
2013-05-17 08:47:00,73.6,71.8,29.97,SSE,159,0.0,1.0,94,0.00,,,0.00,meteohub,2013-05-17 12:47:00,
2013-05-17 08:52:00,73.9,71.8,29.97,SSW,197,0.0,1.0,93,0.00,,,0.00,meteohub,2013-05-17 12:52:00,
2013-05-17 08:57:00,74.3,72.1,29.97,WSW,237,6.0,6.0,93,0.00,,,0.00,meteohub,2013-05-17 12:57:00,
2013-05-17 09:02:00,74.5,72.0,29.97,South,190,0.0,8.0,92,0.00,,,0.00,meteohub,2013-05-17 13:02:00,
2013-05-17 09:07:00,74.7,72.1,29.97,SW,214,0.0,8.0,92,0.00,,,0.00,meteohub,2013-05-17 13:07:00,
2013-05-17 09:12:00,74.8,72.3,29.97,SW,221,2.0,8.0,92,0.00,,,0.00,meteohub,2013-05-17 13:12:00,
2013-05-17 09:17:00,75.2,72.3,29.97,West,259,0.0,8.0,91,0.00,,,0.00,meteohub,2013-05-17 13:17:00,
2013-05-17 09:22:00,75.7,72.7,29.98,South,190,0.0,10.0,90,0.00,,,0.00,meteohub,2013-05-17 13:22:00,
2013-05-17 09:27:00,76.3,72.9,29.98,SW,216,0.0,10.0,89,0.00,,,0.00,meteohub,2013-05-17 13:27:00,
2013-05-17 09:32:00,76.5,73.0,29.98,SSW,211,0.0,10.0,89,0.00,,,0.00,meteohub,2013-05-17 13:32:00,
2013-05-17 09:37:00,76.8,72.7,29.98,WNW,284,0.0,8.0,87,0.00,,,0.00,meteohub,2013-05-17 13:37:00,
2013-05-17 09:42:00,76.8,72.3,29.98,West,281,0.0,8.0,86,0.00,,,0.00,meteohub,2013-05-17 13:42:00,
2013-05-17 09:47:00,76.8,72.7,29.98,WNW,297,0.0,8.0,87,0.00,,,0.00,meteohub,2013-05-17 13:47:00,
2013-05-17 09:52:00,76.8,72.3,29.99,SE,146,2.0,8.0,86,0.00,,,0.00,meteohub,2013-05-17 13:52:00,
2013-05-17 09:57:00,77.4,72.5,29.99,South,184,2.0,8.0,85,0.00,,,0.00,meteohub,2013-05-17 13:57:00,
2013-05-17 10:02:00,77.7,72.5,29.99,SW,231,0.0,11.0,84,0.00,,,0.00,meteohub,2013-05-17 14:02:00,
2013-05-17 10:07:00,78.3,73.0,29.99,SSW,192,0.0,11.0,84,0.00,,,0.00,meteohub,2013-05-17 14:07:00,
2013-05-17 10:12:00,78.6,72.7,29.99,SW,223,0.0,11.0,82,0.00,,,0.00,meteohub,2013-05-17 14:12:00,
2013-05-17 10:17:00,78.6,72.7,29.99,South,186,0.0,7.0,82,0.00,,,0.00,meteohub,2013-05-17 14:17:00,
2013-05-17 10:22:00,78.3,72.3,29.99,SW,216,3.0,7.0,82,0.00,,,0.00,meteohub,2013-05-17 14:22:00,
2013-05-17 10:27:00,78.3,72.3,29.99,West,267,0.0,9.0,82,0.00,,,0.00,meteohub,2013-05-17 14:27:00,
2013-05-17 10:32:00,78.4,72.5,30.00,WSW,258,0.0,9.0,82,0.00,,,0.00,meteohub,2013-05-17 14:32:00,
2013-05-17 10:37:00,78.4,72.1,30.00,SW,216,2.0,7.0,81,0.00,,,0.00,meteohub,2013-05-17 14:37:00,
2013-05-17 10:42:00,78.6,72.7,29.99,WSW,238,0.0,7.0,82,0.00,,,0.00,meteohub,2013-05-17 14:42:00,
2013-05-17 10:47:00,78.6,72.3,29.99,West,265,0.0,12.0,81,0.00,,,0.00,meteohub,2013-05-17 14:47:00,
2013-05-17 10:52:00,78.6,72.3,30.00,SSW,211,0.0,12.0,81,0.00,,,0.00,meteohub,2013-05-17 14:52:00,
2013-05-17 10:57:00,78.8,72.5,30.00,SW,234,0.0,12.0,81,0.00,,,0.00,meteohub,2013-05-17 14:57:00,
2013-05-17 11:02:00,79.0,72.7,30.00,SW,216,0.0,7.0,81,0.00,,,0.00,meteohub,2013-05-17 15:02:00,
2013-05-17 11:07:00,79.2,72.9,30.01,WSW,248,0.0,7.0,81,0.00,,,0.00,meteohub,2013-05-17 15:07:00,
2013-05-17 11:12:00,79.7,73.0,30.01,ENE,63,0.0,7.0,80,0.00,,,0.00,meteohub,2013-05-17 15:12:00,
2013-05-17 11:17:00,80.1,73.0,30.01,ESE,116,0.0,8.0,79,0.00,,,0.00,meteohub,2013-05-17 15:17:00,
2013-05-17 11:22:00,81.0,73.8,30.01,ESE,116,0.0,9.0,79,0.00,,,0.00,meteohub,2013-05-17 15:22:00,
2013-05-17 11:27:00,81.5,72.9,30.01,West,278,0.0,11.0,75,0.00,,,0.00,meteohub,2013-05-17 15:27:00,
2013-05-17 11:32:00,81.5,72.3,30.01,West,264,0.0,11.0,74,0.00,,,0.00,meteohub,2013-05-17 15:32:00,
2013-05-17 11:37:00,81.7,73.0,30.01,WNW,289,0.0,11.0,75,0.00,,,0.00,meteohub,2013-05-17 15:37:00,
2013-05-17 11:42:00,82.2,72.7,30.01,WNW,296,0.0,10.0,73,0.00,,,0.00,meteohub,2013-05-17 15:42:00,
2013-05-17 11:47:00,82.8,72.9,30.01,WSW,249,0.0,9.0,72,0.00,,,0.00,meteohub,2013-05-17 15:47:00,
2013-05-17 11:52:00,82.6,71.8,30.01,SSW,206,9.0,11.0,70,0.00,,,0.00,meteohub,2013-05-17 15:52:00,
2013-05-17 11:57:00,82.6,72.1,30.01,WNW,294,6.0,13.0,71,0.00,,,0.00,meteohub,2013-05-17 15:57:00,
2013-05-17 12:02:00,83.3,72.1,30.01,SSE,154,0.0,13.0,69,0.00,,,0.00,meteohub,2013-05-17 16:02:00,
2013-05-17 12:07:00,84.2,72.5,30.01,West,259,2.0,13.0,68,0.00,,,0.00,meteohub,2013-05-17 16:07:00,
2013-05-17 12:12:00,84.0,72.3,30.01,SSW,207,4.0,11.0,68,0.00,,,0.00,meteohub,2013-05-17 16:12:00,
2013-05-17 12:17:00,83.3,72.1,30.01,South,177,0.0,11.0,69,0.00,,,0.00,meteohub,2013-05-17 16:17:00,
2013-05-17 12:22:00,83.1,72.7,30.01,West,271,0.0,11.0,71,0.00,,,0.00,meteohub,2013-05-17 16:22:00,
2013-05-17 12:27:00,83.7,72.3,30.01,WSW,254,0.0,10.0,69,0.00,,,0.00,meteohub,2013-05-17 16:27:00,
2013-05-17 12:32:00,83.7,72.0,30.01,WSW,246,0.0,10.0,68,0.00,,,0.00,meteohub,2013-05-17 16:32:00,
2013-05-17 12:37:00,84.0,71.4,30.01,SW,232,3.0,9.0,66,0.00,,,0.00,meteohub,2013-05-17 16:37:00,
2013-05-17 12:42:00,84.2,72.0,30.00,West,264,0.0,14.0,67,0.00,,,0.00,meteohub,2013-05-17 16:42:00,
2013-05-17 12:47:00,84.7,72.1,30.00,WSW,254,0.0,14.0,66,0.00,,,0.00,meteohub,2013-05-17 16:47:00,
2013-05-17 12:52:00,84.7,72.1,30.00,South,180,0.0,9.0,66,0.00,,,0.00,meteohub,2013-05-17 16:52:00,
2013-05-17 12:57:00,84.7,72.5,30.00,West,275,0.0,8.0,67,0.00,,,0.00,meteohub,2013-05-17 16:57:00,
2013-05-17 13:02:00,84.7,72.5,30.00,WSW,242,0.0,8.0,67,0.00,,,0.00,meteohub,2013-05-17 17:02:00,
2013-05-17 13:07:00,84.7,71.6,30.00,SSE,165,7.0,8.0,65,0.00,,,0.00,meteohub,2013-05-17 17:07:00,
2013-05-17 13:12:00,84.6,72.0,30.00,SSW,205,4.0,16.0,66,0.00,,,0.00,meteohub,2013-05-17 17:12:00,
2013-05-17 13:17:00,84.6,72.0,29.99,SSW,201,2.0,16.0,66,0.00,,,0.00,meteohub,2013-05-17 17:17:00,
2013-05-17 13:22:00,84.7,72.1,29.99,SW,229,1.0,13.0,66,0.00,,,0.00,meteohub,2013-05-17 17:22:00,
2013-05-17 13:27:00,84.6,71.4,30.00,WNW,288,0.0,17.0,65,0.00,,,0.00,meteohub,2013-05-17 17:27:00,
2013-05-17 13:32:00,84.9,72.7,30.00,NNW,334,0.0,17.0,67,0.00,,,0.00,meteohub,2013-05-17 17:32:00,
2013-05-17 13:37:00,85.5,72.0,29.99,South,175,1.0,11.0,64,0.00,,,0.00,meteohub,2013-05-17 17:37:00,
2013-05-17 13:42:00,85.5,72.0,29.99,SW,226,6.0,10.0,64,0.00,,,0.00,meteohub,2013-05-17 17:42:00,
2013-05-17 13:47:00,85.3,72.7,29.99,WSW,251,0.0,11.0,66,0.00,,,0.00,meteohub,2013-05-17 17:47:00,
2013-05-17 13:52:00,84.6,72.0,29.99,South,180,0.0,11.0,66,0.00,,,0.00,meteohub,2013-05-17 17:52:00,
2013-05-17 13:57:00,84.7,72.1,29.99,WNW,291,0.0,11.0,66,0.00,,,0.00,meteohub,2013-05-17 17:57:00,
2013-05-17 14:02:00,85.5,72.3,29.99,SW,214,0.0,12.0,65,0.00,,,0.00,meteohub,2013-05-17 18:02:00,
2013-05-17 14:07:00,86.0,72.9,29.99,WSW,257,0.0,12.0,65,0.00,,,0.00,meteohub,2013-05-17 18:07:00,
2013-05-17 14:12:00,86.4,72.7,29.99,SSW,200,5.0,12.0,64,0.00,,,0.00,meteohub,2013-05-17 18:12:00,
2013-05-17 14:17:00,86.2,72.5,29.99,WSW,240,1.0,12.0,64,0.00,,,0.00,meteohub,2013-05-17 18:17:00,
2013-05-17 14:22:00,86.5,72.5,29.98,West,259,0.0,12.0,63,0.00,,,0.00,meteohub,2013-05-17 18:22:00,
2013-05-17 14:27:00,86.5,72.5,29.99,South,188,0.0,12.0,63,0.00,,,0.00,meteohub,2013-05-17 18:27:00,
2013-05-17 14:32:00,86.7,72.7,29.98,WSW,254,0.0,10.0,63,0.00,,,0.00,meteohub,2013-05-17 18:32:00,
2013-05-17 14:37:00,87.3,72.7,29.98,West,273,0.0,9.0,62,0.00,,,0.00,meteohub,2013-05-17 18:37:00,
2013-05-17 14:42:00,87.6,73.0,29.98,SSW,207,6.0,9.0,62,0.00,,,0.00,meteohub,2013-05-17 18:42:00,
2013-05-17 14:47:00,87.6,73.4,29.98,West,272,0.0,10.0,63,0.00,,,0.00,meteohub,2013-05-17 18:47:00,
2013-05-17 14:52:00,88.0,72.9,29.98,SE,139,0.0,13.0,61,0.00,,,0.00,meteohub,2013-05-17 18:52:00,
2013-05-17 14:57:00,88.0,72.9,29.98,SW,235,5.0,13.0,61,0.00,,,0.00,meteohub,2013-05-17 18:57:00,
2013-05-17 15:02:00,87.3,72.1,29.98,South,184,6.0,13.0,61,0.00,,,0.00,meteohub,2013-05-17 19:02:00,
2013-05-17 15:07:00,86.5,72.5,29.98,SW,214,9.0,12.0,63,0.00,,,0.00,meteohub,2013-05-17 19:07:00,
2013-05-17 15:12:00,86.0,72.0,29.98,SSE,164,6.0,12.0,63,0.00,,,0.00,meteohub,2013-05-17 19:12:00,
2013-05-17 15:17:00,85.6,71.6,29.97,SW,221,5.0,14.0,63,0.00,,,0.00,meteohub,2013-05-17 19:17:00,
2013-05-17 15:22:00,85.6,72.1,29.97,SW,224,6.0,14.0,64,0.00,,,0.00,meteohub,2013-05-17 19:22:00,
2013-05-17 15:27:00,86.2,72.1,29.97,South,188,0.0,14.0,63,0.00,,,0.00,meteohub,2013-05-17 19:27:00,
2013-05-17 15:32:00,87.1,72.9,29.97,WSW,247,3.0,13.0,63,0.00,,,0.00,meteohub,2013-05-17 19:32:00,
2013-05-17 15:37:00,87.1,72.9,29.97,SSW,211,9.0,12.0,63,0.00,,,0.00,meteohub,2013-05-17 19:37:00,
2013-05-17 15:42:00,86.7,72.1,29.97,SSW,207,4.0,11.0,62,0.00,,,0.00,meteohub,2013-05-17 19:42:00,
2013-05-17 15:47:00,87.1,72.5,29.97,SSW,193,9.0,11.0,62,0.00,,,0.00,meteohub,2013-05-17 19:47:00,
2013-05-17 15:52:00,86.5,72.5,29.97,South,181,0.0,9.0,63,0.00,,,0.00,meteohub,2013-05-17 19:52:00,
2013-05-17 15:57:00,86.9,72.3,29.97,West,267,0.0,9.0,62,0.00,,,0.00,meteohub,2013-05-17 19:57:00,
2013-05-17 16:02:00,86.9,72.3,29.97,SW,233,0.0,9.0,62,0.00,,,0.00,meteohub,2013-05-17 20:02:00,
2013-05-17 16:07:00,86.4,71.8,29.97,SSW,196,0.0,7.0,62,0.00,,,0.00,meteohub,2013-05-17 20:07:00,
2013-05-17 16:12:00,86.5,72.5,29.96,NNE,19,0.0,11.0,63,0.00,,,0.00,meteohub,2013-05-17 20:12:00,
2013-05-17 16:17:00,86.9,72.9,29.96,SSW,207,0.0,11.0,63,0.00,,,0.00,meteohub,2013-05-17 20:17:00,
2013-05-17 16:22:00,86.5,72.0,29.97,WSW,239,0.0,10.0,62,0.00,,,0.00,meteohub,2013-05-17 20:22:00,
2013-05-17 16:27:00,86.2,72.5,29.96,SW,227,3.0,8.0,64,0.00,,,0.00,meteohub,2013-05-17 20:27:00,
2013-05-17 16:32:00,86.5,72.5,29.96,South,180,0.0,8.0,63,0.00,,,0.00,meteohub,2013-05-17 20:32:00,
2013-05-17 16:37:00,86.7,73.0,29.96,SW,232,0.0,8.0,64,0.00,,,0.00,meteohub,2013-05-17 20:37:00,
2013-05-17 16:42:00,87.1,72.5,29.96,SSW,208,2.0,8.0,62,0.00,,,0.00,meteohub,2013-05-17 20:42:00,
2013-05-17 16:47:00,86.9,72.9,29.96,South,185,2.0,10.0,63,0.00,,,0.00,meteohub,2013-05-17 20:47:00,
2013-05-17 16:52:00,87.1,73.4,29.96,SSW,200,4.0,10.0,64,0.00,,,0.00,meteohub,2013-05-17 20:52:00,
2013-05-17 16:57:00,86.5,72.5,29.96,SSW,204,0.0,10.0,63,0.00,,,0.00,meteohub,2013-05-17 20:57:00,
2013-05-17 17:02:00,86.2,72.5,29.95,SSW,210,3.0,11.0,64,0.00,,,0.00,meteohub,2013-05-17 21:02:00,
2013-05-17 17:07:00,86.4,73.2,29.95,NW,313,0.0,12.0,65,0.00,,,0.00,meteohub,2013-05-17 21:07:00,
2013-05-17 17:12:00,86.5,72.5,29.94,SSW,213,0.0,12.0,63,0.00,,,0.00,meteohub,2013-05-17 21:12:00,
2013-05-17 17:17:00,86.4,72.7,29.94,WSW,240,3.0,9.0,64,0.00,,,0.00,meteohub,2013-05-17 21:17:00,
2013-05-17 17:22:00,86.5,72.9,29.94,SSW,196,5.0,11.0,64,0.00,,,0.00,meteohub,2013-05-17 21:22:00,
2013-05-17 17:27:00,86.7,73.0,29.94,WSW,250,0.0,11.0,64,0.00,,,0.00,meteohub,2013-05-17 21:27:00,
2013-05-17 17:32:00,87.1,73.4,29.94,SW,220,0.0,12.0,64,0.00,,,0.00,meteohub,2013-05-17 21:32:00,
2013-05-17 17:37:00,87.3,73.6,29.94,SW,236,3.0,12.0,64,0.00,,,0.00,meteohub,2013-05-17 21:37:00,
2013-05-17 17:42:00,86.7,72.7,29.94,SW,219,1.0,12.0,63,0.00,,,0.00,meteohub,2013-05-17 21:42:00,
2013-05-17 17:47:00,86.5,72.9,29.94,SSW,202,9.0,12.0,64,0.00,,,0.00,meteohub,2013-05-17 21:47:00,
2013-05-17 17:52:00,86.2,73.0,29.94,SW,228,0.0,12.0,65,0.00,,,0.00,meteohub,2013-05-17 21:52:00,
2013-05-17 17:57:00,86.0,72.9,29.94,WNW,294,0.0,12.0,65,0.00,,,0.00,meteohub,2013-05-17 21:57:00,
2013-05-17 18:02:00,86.4,72.7,29.94,SW,229,0.0,10.0,64,0.00,,,0.00,meteohub,2013-05-17 22:02:00,
2013-05-17 18:07:00,86.5,72.5,29.94,WSW,254,7.0,7.0,63,0.00,,,0.00,meteohub,2013-05-17 22:07:00,
2013-05-17 18:12:00,86.7,73.0,29.94,SSE,158,0.0,7.0,64,0.00,,,0.00,meteohub,2013-05-17 22:12:00,
2013-05-17 18:17:00,86.5,72.9,29.94,SW,232,0.0,8.0,64,0.00,,,0.00,meteohub,2013-05-17 22:17:00,
2013-05-17 18:22:00,87.1,73.4,29.94,NE,50,0.0,8.0,64,0.00,,,0.00,meteohub,2013-05-17 22:22:00,
2013-05-17 18:27:00,86.9,72.9,29.94,South,188,0.0,8.0,63,0.00,,,0.00,meteohub,2013-05-17 22:27:00,
2013-05-17 18:32:00,86.5,72.5,29.94,South,182,0.0,9.0,63,0.00,,,0.00,meteohub,2013-05-17 22:32:00,
2013-05-17 18:37:00,86.4,72.7,29.94,SSW,210,1.0,9.0,64,0.00,,,0.00,meteohub,2013-05-17 22:37:00,
2013-05-17 18:42:00,86.2,73.0,29.94,South,191,3.0,7.0,65,0.00,,,0.00,meteohub,2013-05-17 22:42:00,
2013-05-17 18:47:00,85.8,73.2,29.94,SSE,168,6.0,7.0,66,0.00,,,0.00,meteohub,2013-05-17 22:47:00,
2013-05-17 18:52:00,85.6,73.0,29.94,WSW,237,6.0,8.0,66,0.00,,,0.00,meteohub,2013-05-17 22:52:00,
2013-05-17 18:57:00,84.9,72.7,29.94,WSW,246,2.0,10.0,67,0.00,,,0.00,meteohub,2013-05-17 22:57:00,
2013-05-17 19:02:00,84.9,72.7,29.94,WSW,258,0.0,10.0,67,0.00,,,0.00,meteohub,2013-05-17 23:02:00,
2013-05-17 19:07:00,85.3,73.0,29.93,WSW,252,0.0,10.0,67,0.00,,,0.00,meteohub,2013-05-17 23:07:00,
2013-05-17 19:12:00,85.3,73.0,29.94,SW,236,0.0,8.0,67,0.00,,,0.00,meteohub,2013-05-17 23:12:00,
2013-05-17 19:17:00,84.9,73.2,29.94,WSW,258,0.0,7.0,68,0.00,,,0.00,meteohub,2013-05-17 23:17:00,
2013-05-17 19:22:00,84.7,73.4,29.94,WSW,254,0.0,7.0,69,0.00,,,0.00,meteohub,2013-05-17 23:22:00,
2013-05-17 19:27:00,84.6,73.2,29.94,West,273,0.0,9.0,69,0.00,,,0.00,meteohub,2013-05-17 23:27:00,
2013-05-17 19:32:00,84.7,73.0,29.94,West,270,0.0,9.0,68,0.00,,,0.00,meteohub,2013-05-17 23:32:00,
2013-05-17 19:37:00,84.7,73.4,29.94,NW,304,0.0,9.0,69,0.00,,,0.00,meteohub,2013-05-17 23:37:00,
2013-05-17 19:42:00,84.6,72.9,29.94,South,177,0.0,6.0,68,0.00,,,0.00,meteohub,2013-05-17 23:42:00,
2013-05-17 19:47:00,84.4,73.0,29.94,South,172,0.0,6.0,69,0.00,,,0.00,meteohub,2013-05-17 23:47:00,
2013-05-17 19:52:00,83.8,73.0,29.94,SSW,198,0.0,6.0,70,0.00,,,0.00,meteohub,2013-05-17 23:52:00,
2013-05-17 19:57:00,83.5,73.0,29.94,South,182,0.0,11.0,71,0.00,,,0.00,meteohub,2013-05-17 23:57:00,
2013-05-17 20:02:00,83.1,72.7,29.94,SSW,203,0.0,11.0,71,0.00,,,0.00,meteohub,2013-05-18 00:02:00,
2013-05-17 20:07:00,83.1,73.2,29.95,SE,144,0.0,11.0,72,0.00,,,0.00,meteohub,2013-05-18 00:07:00,
2013-05-17 20:12:00,83.1,73.2,29.95,West,281,0.0,7.0,72,0.00,,,0.00,meteohub,2013-05-18 00:12:00,
2013-05-17 20:17:00,83.1,73.2,29.95,West,281,0.0,7.0,72,0.00,,,0.00,meteohub,2013-05-18 00:17:00,
2013-05-17 20:22:00,82.9,73.0,29.96,WSW,240,0.0,6.0,72,0.00,,,0.00,meteohub,2013-05-18 00:22:00,
2013-05-17 20:27:00,82.9,73.0,29.96,WSW,245,0.0,1.0,72,0.00,,,0.00,meteohub,2013-05-18 00:27:00,
2013-05-17 20:32:00,82.8,73.2,29.96,SW,219,0.0,1.0,73,0.00,,,0.00,meteohub,2013-05-18 00:32:00,
2013-05-17 20:37:00,82.6,73.0,29.96,SW,219,0.0,1.0,73,0.00,,,0.00,meteohub,2013-05-18 00:37:00,
2013-05-17 20:42:00,82.4,72.9,29.96,SW,219,0.0,1.0,73,0.00,,,0.00,meteohub,2013-05-18 00:42:00,
2013-05-17 20:47:00,82.2,73.0,29.96,SW,219,0.0,0.0,74,0.00,,,0.00,meteohub,2013-05-18 00:47:00,
2013-05-17 20:52:00,82.0,72.9,29.97,South,188,0.0,0.0,74,0.00,,,0.00,meteohub,2013-05-18 00:52:00,
2013-05-17 20:57:00,81.7,73.0,29.96,South,188,0.0,1.0,75,0.00,,,0.00,meteohub,2013-05-18 00:57:00,
2013-05-17 21:02:00,81.3,72.7,29.97,SSW,205,0.0,3.0,75,0.00,,,0.00,meteohub,2013-05-18 01:02:00,
2013-05-17 21:07:00,81.1,72.5,29.97,SW,235,0.0,3.0,75,0.00,,,0.00,meteohub,2013-05-18 01:07:00,
2013-05-17 21:12:00,80.8,72.5,29.97,SW,235,0.0,4.0,76,0.00,,,0.00,meteohub,2013-05-18 01:12:00,
2013-05-17 21:17:00,80.6,72.3,29.97,SW,235,0.0,4.0,76,0.00,,,0.00,meteohub,2013-05-18 01:17:00,
2013-05-17 21:22:00,80.2,72.0,29.97,SW,235,0.0,4.0,76,0.00,,,0.00,meteohub,2013-05-18 01:22:00,
2013-05-17 21:27:00,80.1,71.8,29.97,WSW,238,0.0,1.0,76,0.00,,,0.00,meteohub,2013-05-18 01:27:00,
2013-05-17 21:32:00,79.9,71.6,29.97,South,186,0.0,4.0,76,0.00,,,0.00,meteohub,2013-05-18 01:32:00,
2013-05-17 21:37:00,79.7,71.1,29.97,South,186,0.0,4.0,75,0.00,,,0.00,meteohub,2013-05-18 01:37:00,
2013-05-17 21:42:00,79.5,70.9,29.97,SSW,207,1.0,4.0,75,0.00,,,0.00,meteohub,2013-05-18 01:42:00,
2013-05-17 21:47:00,79.3,70.7,29.97,WSW,242,0.0,1.0,75,0.00,,,0.00,meteohub,2013-05-18 01:47:00,
2013-05-17 21:52:00,79.3,70.7,29.97,WSW,239,0.0,1.0,75,0.00,,,0.00,meteohub,2013-05-18 01:52:00,
2013-05-17 21:57:00,79.2,70.5,29.97,SW,232,4.0,4.0,75,0.00,,,0.00,meteohub,2013-05-18 01:57:00,
2013-05-17 22:02:00,79.0,70.7,29.97,SW,232,0.0,4.0,76,0.00,,,0.00,meteohub,2013-05-18 02:02:00,
2013-05-17 22:07:00,78.6,70.3,29.97,SSW,197,2.0,4.0,76,0.00,,,0.00,meteohub,2013-05-18 02:07:00,
2013-05-17 22:12:00,78.3,70.5,29.97,SW,232,0.0,5.0,77,0.00,,,0.00,meteohub,2013-05-18 02:12:00,
2013-05-17 22:17:00,78.1,70.3,29.97,SW,231,0.0,5.0,77,0.00,,,0.00,meteohub,2013-05-18 02:17:00,
2013-05-17 22:22:00,78.1,70.7,29.98,SW,231,0.0,4.0,78,0.00,,,0.00,meteohub,2013-05-18 02:22:00,
2013-05-17 22:27:00,77.9,70.5,29.98,WSW,239,0.0,5.0,78,0.00,,,0.00,meteohub,2013-05-18 02:27:00,
2013-05-17 22:32:00,77.7,70.3,29.98,SW,214,0.0,5.0,78,0.00,,,0.00,meteohub,2013-05-18 02:32:00,
2013-05-17 22:37:00,77.5,70.5,29.99,SW,219,0.0,5.0,79,0.00,,,0.00,meteohub,2013-05-18 02:37:00,
2013-05-17 22:42:00,77.5,70.9,29.99,SW,225,0.0,5.0,80,0.00,,,0.00,meteohub,2013-05-18 02:42:00,
2013-05-17 22:47:00,77.4,70.7,29.99,SSW,197,0.0,5.0,80,0.00,,,0.00,meteohub,2013-05-18 02:47:00,
2013-05-17 22:52:00,77.4,70.7,29.99,SSW,198,0.0,1.0,80,0.00,,,0.00,meteohub,2013-05-18 02:52:00,
2013-05-17 22:57:00,77.2,70.9,30.00,SSW,199,0.0,1.0,81,0.00,,,0.00,meteohub,2013-05-18 02:57:00,
2013-05-17 23:02:00,77.0,71.1,29.99,SW,215,0.0,2.0,82,0.00,,,0.00,meteohub,2013-05-18 03:02:00,
2013-05-17 23:07:00,76.8,70.9,30.00,SW,225,0.0,2.0,82,0.00,,,0.00,meteohub,2013-05-18 03:07:00,
2013-05-17 23:12:00,76.6,71.1,30.00,WSW,258,2.0,2.0,83,0.00,,,0.00,meteohub,2013-05-18 03:12:00,
2013-05-17 23:17:00,76.5,70.9,30.00,WSW,251,0.0,7.0,83,0.00,,,0.00,meteohub,2013-05-18 03:17:00,
2013-05-17 23:22:00,76.5,71.2,30.00,WSW,251,0.0,7.0,84,0.00,,,0.00,meteohub,2013-05-18 03:22:00,
2013-05-17 23:27:00,76.3,71.1,30.01,SSW,199,0.0,7.0,84,0.00,,,0.00,meteohub,2013-05-18 03:27:00,
2013-05-17 23:32:00,76.1,70.9,30.00,SW,221,0.0,3.0,84,0.00,,,0.00,meteohub,2013-05-18 03:32:00,
2013-05-17 23:37:00,75.9,71.1,30.00,SSW,213,0.0,3.0,85,0.00,,,0.00,meteohub,2013-05-18 03:37:00,
2013-05-17 23:42:00,75.7,70.9,30.01,SW,225,0.0,6.0,85,0.00,,,0.00,meteohub,2013-05-18 03:42:00,
2013-05-17 23:47:00,75.6,71.1,30.01,SSW,202,0.0,6.0,86,0.00,,,0.00,meteohub,2013-05-18 03:47:00,
2013-05-17 23:52:00,75.6,71.1,30.00,SSW,196,1.0,3.0,86,0.00,,,0.00,meteohub,2013-05-18 03:52:00,
2013-05-17 23:57:00,75.6,71.4,30.01,SSW,207,0.0,3.0,87,0.00,,,0.00,meteohub,2013-05-18 03:57:00,